createdAt,value
2022-10-10T00:00:26.616Z,57.02
2022-10-10T00:01:26.674Z,55.81
2022-10-10T00:02:26.605Z,60.87
2022-10-10T00:03:26.587Z,46.07
2022-10-10T00:04:26.590Z,62.94
2022-10-10T00:05:26.564Z,49.20
2022-10-10T00:06:31.881Z,41.97
2022-10-10T00:07:28.577Z,48.21
2022-10-10T00:08:26.549Z,58.58
2022-10-10T00:09:26.545Z,47.67
2022-10-10T00:10:26.538Z,44.37
2022-10-10T00:11:26.566Z,53.51
2022-10-10T00:12:26.539Z,44.95
2022-10-10T00:13:26.512Z,54.53
2022-10-10T00:14:29.309Z,51.19
2022-10-10T00:15:27.541Z,52.95
2022-10-10T00:16:26.521Z,46.11
2022-10-10T00:17:26.481Z,58.73
2022-10-10T00:18:26.534Z,52.50
2022-10-10T00:19:26.466Z,46.55
2022-10-10T00:20:26.453Z,64.91
2022-10-10T00:21:26.484Z,47.55
2022-10-10T00:22:26.437Z,44.24
2022-10-10T00:23:26.431Z,44.67
2022-10-10T00:24:26.420Z,46.20
2022-10-10T00:25:26.415Z,63.76
2022-10-10T00:26:26.433Z,53.33
2022-10-10T00:27:26.398Z,51.25
2022-10-10T00:28:26.438Z,45.14
2022-10-10T00:29:26.388Z,44.35
2022-10-10T00:30:26.389Z,57.16
2022-10-10T00:31:26.413Z,44.66
2022-10-10T00:32:26.361Z,56.03
2022-10-10T00:33:26.366Z,51.33
2022-10-10T00:34:26.349Z,62.20
2022-10-10T00:35:26.374Z,55.49
2022-10-10T00:36:26.349Z,52.90
2022-10-10T00:37:26.319Z,48.08
2022-10-10T00:38:26.309Z,48.21
2022-10-10T00:39:26.286Z,51.59
2022-10-10T00:40:27.290Z,63.40
2022-10-10T00:41:26.316Z,47.84
2022-10-10T00:42:26.290Z,46.51
2022-10-10T00:43:26.275Z,48.58
2022-10-10T00:44:26.250Z,58.81
2022-10-10T00:45:26.246Z,48.76
2022-10-10T00:46:26.267Z,56.18
2022-10-10T00:47:26.234Z,48.51
2022-10-10T00:48:26.231Z,50.48
2022-10-10T00:49:26.219Z,53.04
2022-10-10T00:50:26.212Z,59.91
2022-10-10T00:51:26.228Z,60.88
2022-10-10T00:52:26.190Z,48.43
2022-10-10T00:53:26.186Z,48.71
2022-10-10T00:54:26.173Z,51.22
2022-10-10T00:55:26.170Z,54.65
2022-10-10T00:56:26.187Z,60.19
2022-10-10T00:57:26.152Z,54.26
2022-10-10T00:58:26.148Z,51.45
2022-10-10T00:59:26.136Z,61.09
2022-10-10T01:00:26.130Z,48.36
2022-10-10T01:01:26.351Z,55.27
2022-10-10T01:02:26.114Z,52.87
2022-10-10T01:03:26.086Z,66.78
2022-10-10T01:04:27.100Z,62.44
2022-10-10T01:05:26.094Z,47.28
2022-10-10T01:06:26.107Z,51.76
2022-10-10T01:07:26.066Z,65.38
2022-10-10T01:08:26.058Z,59.66
2022-10-10T01:09:26.045Z,60.40
2022-10-10T01:10:26.044Z,59.97
2022-10-10T01:11:26.077Z,58.69
2022-10-10T01:12:26.031Z,47.62
2022-10-10T01:13:26.020Z,62.63
2022-10-10T01:14:26.012Z,56.71
2022-10-10T01:15:26.021Z,53.50
2022-10-10T01:16:26.024Z,46.71
2022-10-10T01:17:26.004Z,45.15
2022-10-10T01:18:26.137Z,54.21
2022-10-10T01:19:25.964Z,64.96
2022-10-10T01:20:26.965Z,54.70
2022-10-10T01:21:25.984Z,46.12
2022-10-10T01:22:25.974Z,49.39
2022-10-10T01:23:25.937Z,56.95
2022-10-10T01:24:25.930Z,52.76
2022-10-10T01:25:25.920Z,51.92
2022-10-10T01:26:25.983Z,49.82
2022-10-10T01:27:30.970Z,43.03
2022-10-10T01:28:27.935Z,43.13
2022-10-10T01:29:25.887Z,57.80
2022-10-10T01:30:25.887Z,59.03
2022-10-10T01:31:25.900Z,62.53
2022-10-10T01:32:25.859Z,52.50
2022-10-10T01:33:25.855Z,48.35
2022-10-10T01:34:25.845Z,59.92
2022-10-10T01:35:25.834Z,46.82
2022-10-10T01:36:25.862Z,46.40
2022-10-10T01:37:25.825Z,61.11
2022-10-10T01:38:25.810Z,58.13
2022-10-10T01:39:25.798Z,57.46
2022-10-10T01:40:25.792Z,60.10
2022-10-10T01:41:25.811Z,55.45
2022-10-10T01:42:26.777Z,56.47
2022-10-10T01:43:25.767Z,55.53
2022-10-10T01:44:25.761Z,58.00
2022-10-10T01:45:25.756Z,58.22
2022-10-10T01:46:25.841Z,49.47
2022-10-10T01:47:25.781Z,41.06
2022-10-10T01:48:25.728Z,41.50
2022-10-10T01:49:25.719Z,48.83
2022-10-10T01:50:25.714Z,43.09
2022-10-10T01:51:25.700Z,62.07
2022-10-10T01:52:25.741Z,54.70
2022-10-10T01:53:25.695Z,55.92
2022-10-10T01:54:25.680Z,46.87
2022-10-10T01:55:25.669Z,42.66
2022-10-10T01:56:25.703Z,65.61
2022-10-10T01:57:25.676Z,51.89
2022-10-10T01:58:25.653Z,42.72
2022-10-10T01:59:25.642Z,60.04
2022-10-10T02:00:25.634Z,55.36
2022-10-10T02:01:25.629Z,55.57
2022-10-10T02:02:25.877Z,43.18
2022-10-10T02:03:25.618Z,56.37
2022-10-10T02:04:25.605Z,59.41
2022-10-10T02:05:25.601Z,60.42
2022-10-10T02:06:25.618Z,68.48
2022-10-10T02:07:26.584Z,58.80
2022-10-10T02:08:25.580Z,58.18
2022-10-10T02:09:25.565Z,56.01
2022-10-10T02:10:25.571Z,56.82
2022-10-10T02:11:25.553Z,43.78
2022-10-10T02:12:25.571Z,55.76
2022-10-10T02:13:25.537Z,63.31
2022-10-10T02:14:25.523Z,46.43
2022-10-10T02:15:25.522Z,61.24
2022-10-10T02:16:25.504Z,44.96
2022-10-10T02:17:25.532Z,45.98
2022-10-10T02:18:25.586Z,58.60
2022-10-10T02:19:25.491Z,66.65
2022-10-10T02:20:25.489Z,55.56
2022-10-10T02:21:25.477Z,62.04
2022-10-10T02:22:25.494Z,54.44
2022-10-10T02:23:25.459Z,45.70
2022-10-10T02:24:25.447Z,58.65
2022-10-10T02:25:25.444Z,55.45
2022-10-10T02:26:25.432Z,56.00
2022-10-10T02:27:25.793Z,51.56
2022-10-10T02:28:25.419Z,50.34
2022-10-10T02:29:25.415Z,60.49
2022-10-10T02:30:25.406Z,59.24
2022-10-10T02:31:25.422Z,63.65
2022-10-10T02:32:25.388Z,57.52
2022-10-10T02:33:25.366Z,57.71
2022-10-10T02:34:25.374Z,61.32
2022-10-10T02:35:25.365Z,59.32
2022-10-10T02:36:25.384Z,60.12
2022-10-10T02:37:25.345Z,54.26
2022-10-10T02:38:25.333Z,58.92
2022-10-10T02:39:25.326Z,61.52
2022-10-10T02:40:25.564Z,63.41
2022-10-10T02:41:25.341Z,67.62
2022-10-10T02:42:25.300Z,58.56
2022-10-10T02:43:25.640Z,65.72
2022-10-10T02:44:25.286Z,63.67
2022-10-10T02:45:25.277Z,64.78
2022-10-10T02:46:25.287Z,63.11
2022-10-10T02:47:25.292Z,70.44
2022-10-10T02:48:25.252Z,60.50
2022-10-10T02:49:25.236Z,60.81
2022-10-10T02:50:25.232Z,56.90
2022-10-10T02:51:29.678Z,65.13
2022-10-10T02:52:27.248Z,65.80
2022-10-10T02:53:25.212Z,52.14
2022-10-10T02:54:25.421Z,60.80
2022-10-10T02:55:25.191Z,65.50
2022-10-10T02:56:25.185Z,59.95
2022-10-10T02:57:25.205Z,65.72
2022-10-10T02:58:25.164Z,70.09
2022-10-10T02:59:25.164Z,56.93
2022-10-10T03:00:25.151Z,53.73
2022-10-10T03:01:25.171Z,68.36
2022-10-10T03:02:25.166Z,59.23
2022-10-10T03:03:25.133Z,67.26
2022-10-10T03:04:25.179Z,66.33
2022-10-10T03:05:25.106Z,58.76
2022-10-10T03:06:25.140Z,57.45
2022-10-10T03:07:25.127Z,62.31
2022-10-10T03:08:25.090Z,50.53
2022-10-10T03:09:25.080Z,63.30
2022-10-10T03:10:25.067Z,69.55
2022-10-10T03:11:25.055Z,63.42
2022-10-10T03:12:25.186Z,60.01
2022-10-10T03:13:25.042Z,65.25
2022-10-10T03:14:25.093Z,63.49
2022-10-10T03:15:25.025Z,62.39
2022-10-10T03:16:25.023Z,71.33
2022-10-10T03:17:25.040Z,58.69
2022-10-10T03:18:24.997Z,60.92
2022-10-10T03:19:24.996Z,61.13
2022-10-10T03:20:25.018Z,68.48
2022-10-10T03:21:24.980Z,69.89
2022-10-10T03:22:24.997Z,68.18
2022-10-10T03:23:24.965Z,72.55
2022-10-10T03:24:24.953Z,64.20
2022-10-10T03:25:24.950Z,68.84
2022-10-10T03:26:24.939Z,70.04
2022-10-10T03:27:24.958Z,68.35
2022-10-10T03:28:24.959Z,64.01
2022-10-10T03:29:24.915Z,69.08
2022-10-10T03:30:24.905Z,67.44
2022-10-10T03:31:24.898Z,56.23
2022-10-10T03:32:24.919Z,69.07
2022-10-10T03:33:24.876Z,67.05
2022-10-10T03:34:24.874Z,67.70
2022-10-10T03:35:24.927Z,64.24
2022-10-10T03:36:25.002Z,67.64
2022-10-10T03:37:24.871Z,71.05
2022-10-10T03:38:24.839Z,63.15
2022-10-10T03:39:24.832Z,64.01
2022-10-10T03:40:24.905Z,67.91
2022-10-10T03:41:24.820Z,69.60
2022-10-10T03:42:24.833Z,59.92
2022-10-10T03:43:24.799Z,69.61
2022-10-10T03:44:24.796Z,71.31
2022-10-10T03:45:24.782Z,62.48
2022-10-10T03:46:24.779Z,67.50
2022-10-10T03:47:24.796Z,64.58
2022-10-10T03:48:24.766Z,72.29
2022-10-10T03:49:24.749Z,72.52
2022-10-10T03:50:24.752Z,67.51
2022-10-10T03:51:24.736Z,65.94
2022-10-10T03:52:24.755Z,70.73
2022-10-10T03:53:24.717Z,66.77
2022-10-10T03:54:24.718Z,68.33
2022-10-10T03:55:24.704Z,72.41
2022-10-10T03:56:24.691Z,70.40
2022-10-10T03:57:24.722Z,61.21
2022-10-10T03:58:24.707Z,64.38
2022-10-10T03:59:24.667Z,67.14
2022-10-10T04:00:24.661Z,69.28
2022-10-10T04:01:24.703Z,61.46
2022-10-10T04:02:24.697Z,72.40
2022-10-10T04:03:24.639Z,68.56
2022-10-10T04:04:24.715Z,68.94
2022-10-10T04:05:24.626Z,59.79
2022-10-10T04:06:24.611Z,71.91
2022-10-10T04:07:24.634Z,66.63
2022-10-10T04:08:24.593Z,64.71
2022-10-10T04:09:24.615Z,69.76
2022-10-10T04:10:24.589Z,68.02
2022-10-10T04:11:24.573Z,66.04
2022-10-10T04:12:24.607Z,63.29
2022-10-10T04:13:24.558Z,69.16
2022-10-10T04:14:24.546Z,71.49
2022-10-10T04:15:24.537Z,64.97
2022-10-10T04:16:24.546Z,64.81
2022-10-10T04:17:24.523Z,69.10
2022-10-10T04:18:24.545Z,72.74
2022-10-10T04:19:24.516Z,61.30
2022-10-10T04:20:24.518Z,70.18
2022-10-10T04:21:24.493Z,71.93
2022-10-10T04:22:24.490Z,71.03
2022-10-10T04:23:24.495Z,65.12
2022-10-10T04:24:24.470Z,69.12
2022-10-10T04:25:24.469Z,72.84
2022-10-10T04:26:24.471Z,71.56
2022-10-10T04:27:24.441Z,69.40
2022-10-10T04:28:24.483Z,65.56
2022-10-10T04:29:24.423Z,70.25
2022-10-10T04:30:24.412Z,68.44
2022-10-10T04:31:24.403Z,73.36
2022-10-10T04:32:24.470Z,69.67
2022-10-10T04:33:24.418Z,68.75
2022-10-10T04:34:24.376Z,68.21
2022-10-10T04:35:24.374Z,73.09
2022-10-10T04:36:24.359Z,70.28
2022-10-10T04:37:24.365Z,67.36
2022-10-10T04:38:24.378Z,69.99
2022-10-10T04:39:24.340Z,69.64
2022-10-10T04:40:26.806Z,71.63
2022-10-10T04:41:25.336Z,71.95
2022-10-10T04:42:24.324Z,64.63
2022-10-10T04:43:24.330Z,71.44
2022-10-10T04:44:24.296Z,72.03
2022-10-10T04:45:24.287Z,71.71
2022-10-10T04:46:24.280Z,68.65
2022-10-10T04:47:24.270Z,73.53
2022-10-10T04:48:24.297Z,70.40
2022-10-10T04:49:24.258Z,69.92
2022-10-10T04:50:24.246Z,73.34
2022-10-10T04:51:24.237Z,65.74
2022-10-10T04:52:24.229Z,66.90
2022-10-10T04:53:24.326Z,68.09
2022-10-10T04:54:24.217Z,71.29
2022-10-10T04:55:24.205Z,70.67
2022-10-10T04:56:24.207Z,71.55
2022-10-10T04:57:24.197Z,70.66
2022-10-10T04:58:24.208Z,71.47
2022-10-10T04:59:24.169Z,72.33
2022-10-10T05:00:24.164Z,69.51
2022-10-10T05:01:24.179Z,71.03
2022-10-10T05:02:24.148Z,70.61
2022-10-10T05:03:24.173Z,71.00
2022-10-10T05:04:24.130Z,71.52
2022-10-10T05:05:24.122Z,70.15
2022-10-10T05:06:24.113Z,63.43
2022-10-10T05:07:24.111Z,69.67
2022-10-10T05:08:24.125Z,69.81
2022-10-10T05:09:24.092Z,69.61
2022-10-10T05:10:24.083Z,68.89
2022-10-10T05:11:24.083Z,72.08
2022-10-10T05:12:24.062Z,72.05
2022-10-10T05:13:24.081Z,70.03
2022-10-10T05:14:24.051Z,73.09
2022-10-10T05:15:24.049Z,70.64
2022-10-10T05:16:24.030Z,71.92
2022-10-10T05:17:24.026Z,73.18
2022-10-10T05:18:24.039Z,70.38
2022-10-10T05:19:24.020Z,72.94
2022-10-10T05:20:23.996Z,70.62
2022-10-10T05:21:23.981Z,72.30
2022-10-10T05:22:24.989Z,71.23
2022-10-10T05:23:24.004Z,71.53
2022-10-10T05:24:23.966Z,67.08
2022-10-10T05:25:23.959Z,70.75
2022-10-10T05:26:23.948Z,68.09
2022-10-10T05:27:23.936Z,70.13
2022-10-10T05:28:24.019Z,71.67
2022-10-10T05:29:23.926Z,71.27
2022-10-10T05:30:23.922Z,70.24
2022-10-10T05:31:23.911Z,68.21
2022-10-10T05:32:23.895Z,68.55
2022-10-10T05:33:23.916Z,72.39
2022-10-10T05:34:23.891Z,68.80
2022-10-10T05:35:23.967Z,71.64
2022-10-10T05:36:23.870Z,69.93
2022-10-10T05:37:23.862Z,71.98
2022-10-10T05:38:23.877Z,71.21
2022-10-10T05:39:23.852Z,70.46
2022-10-10T05:40:23.834Z,71.14
2022-10-10T05:41:23.824Z,69.39
2022-10-10T05:42:23.815Z,73.59
2022-10-10T05:43:23.834Z,70.68
2022-10-10T05:44:23.802Z,67.05
2022-10-10T05:45:23.797Z,69.70
2022-10-10T05:46:23.787Z,72.36
2022-10-10T05:47:27.618Z,68.80
2022-10-10T05:48:24.800Z,69.99
2022-10-10T05:49:23.759Z,70.32
2022-10-10T05:50:23.756Z,66.92
2022-10-10T05:51:23.745Z,71.05
2022-10-10T05:52:23.744Z,73.05
2022-10-10T05:53:23.765Z,69.54
2022-10-10T05:54:23.729Z,71.01
2022-10-10T05:55:23.708Z,73.88
2022-10-10T05:56:23.702Z,68.65
2022-10-10T05:57:23.702Z,71.19
2022-10-10T05:58:23.734Z,71.66
2022-10-10T05:59:23.688Z,69.13
2022-10-10T06:00:23.665Z,71.51
2022-10-10T06:01:23.662Z,68.56
2022-10-10T06:02:23.667Z,67.39
2022-10-10T06:03:23.676Z,71.07
2022-10-10T06:04:23.638Z,71.83
2022-10-10T06:05:23.625Z,69.88
2022-10-10T06:06:23.617Z,69.85
2022-10-10T06:07:23.612Z,66.21
2022-10-10T06:08:23.628Z,63.18
2022-10-10T06:09:23.598Z,70.03
2022-10-10T06:10:23.582Z,70.15
2022-10-10T06:11:23.576Z,71.71
2022-10-10T06:12:23.570Z,70.98
2022-10-10T06:13:24.611Z,70.68
2022-10-10T06:14:24.552Z,70.93
2022-10-10T06:15:23.544Z,72.95
2022-10-10T06:16:23.528Z,70.83
2022-10-10T06:17:23.529Z,66.65
2022-10-10T06:18:23.550Z,66.17
2022-10-10T06:19:23.535Z,69.01
2022-10-10T06:20:23.507Z,71.23
2022-10-10T06:21:23.491Z,63.66
2022-10-10T06:22:23.476Z,69.22
2022-10-10T06:23:23.514Z,70.37
2022-10-10T06:24:23.471Z,68.76
2022-10-10T06:25:39.605Z,68.88
2022-10-10T06:26:25.466Z,70.05
2022-10-10T06:27:23.446Z,68.50
2022-10-10T06:28:23.537Z,70.81
2022-10-10T06:29:23.428Z,64.47
2022-10-10T06:30:23.420Z,66.79
2022-10-10T06:31:23.410Z,64.44
2022-10-10T06:32:23.403Z,70.44
2022-10-10T06:33:23.390Z,69.71
2022-10-10T06:34:23.410Z,69.37
2022-10-10T06:35:23.379Z,66.70
2022-10-10T06:36:23.382Z,65.24
2022-10-10T06:37:23.362Z,62.51
2022-10-10T06:38:23.356Z,70.42
2022-10-10T06:39:23.376Z,70.46
2022-10-10T06:40:23.339Z,72.08
2022-10-10T06:41:23.350Z,68.86
2022-10-10T06:42:23.324Z,67.23
2022-10-10T06:43:23.316Z,69.97
2022-10-10T06:44:23.337Z,70.26
2022-10-10T06:45:23.348Z,65.31
2022-10-10T06:46:23.300Z,64.32
2022-10-10T06:47:23.288Z,68.02
2022-10-10T06:48:23.277Z,70.09
2022-10-10T06:49:23.295Z,72.88
2022-10-10T06:50:23.260Z,66.80
2022-10-10T06:51:23.258Z,66.25
2022-10-10T06:52:23.244Z,66.26
2022-10-10T06:53:23.237Z,70.47
2022-10-10T06:54:23.257Z,67.56
2022-10-10T06:55:23.220Z,69.34
2022-10-10T06:56:27.458Z,66.62
2022-10-10T06:57:24.201Z,69.53
2022-10-10T06:58:23.189Z,62.77
2022-10-10T06:59:23.208Z,63.77
2022-10-10T07:00:23.188Z,67.15
2022-10-10T07:01:23.217Z,70.04
2022-10-10T07:02:23.178Z,69.42
2022-10-10T07:03:23.151Z,68.92
2022-10-10T07:04:23.166Z,64.72
2022-10-10T07:05:23.134Z,68.89
2022-10-10T07:06:23.121Z,66.76
2022-10-10T07:07:23.113Z,67.90
2022-10-10T07:08:23.091Z,70.55
2022-10-10T07:09:24.126Z,71.61
2022-10-10T07:10:23.088Z,66.59
2022-10-10T07:11:23.096Z,62.96
2022-10-10T07:12:23.077Z,70.39
2022-10-10T07:13:23.070Z,70.59
2022-10-10T07:14:23.098Z,65.14
2022-10-10T07:15:23.043Z,67.31
2022-10-10T07:16:23.047Z,69.14
2022-10-10T07:17:23.030Z,66.52
2022-10-10T07:18:23.035Z,65.77
2022-10-10T07:19:23.052Z,68.27
2022-10-10T07:20:23.013Z,67.72
2022-10-10T07:21:22.998Z,71.45
2022-10-10T07:22:22.990Z,63.76
2022-10-10T07:23:22.987Z,67.86
2022-10-10T07:24:23.005Z,66.47
2022-10-10T07:25:22.962Z,66.92
2022-10-10T07:26:22.957Z,64.57
2022-10-10T07:27:22.952Z,66.41
2022-10-10T07:28:22.960Z,70.94
2022-10-10T07:29:22.960Z,65.05
2022-10-10T07:30:22.924Z,67.62
2022-10-10T07:31:22.911Z,67.85
2022-10-10T07:32:22.906Z,71.57
2022-10-10T07:33:22.896Z,66.09
2022-10-10T07:34:22.926Z,68.15
2022-10-10T07:35:22.886Z,65.15
2022-10-10T07:36:22.869Z,69.98
2022-10-10T07:37:22.866Z,65.64
2022-10-10T07:38:22.858Z,70.83
2022-10-10T07:39:22.882Z,68.46
2022-10-10T07:40:22.842Z,65.99
2022-10-10T07:41:22.839Z,67.51
2022-10-10T07:42:22.833Z,66.24
2022-10-10T07:43:22.814Z,63.21
2022-10-10T07:44:22.837Z,68.89
2022-10-10T07:45:22.806Z,64.59
2022-10-10T07:46:22.789Z,64.00
2022-10-10T07:47:22.793Z,65.12
2022-10-10T07:48:22.784Z,66.15
2022-10-10T07:49:22.796Z,71.43
2022-10-10T07:50:22.784Z,68.73
2022-10-10T07:51:22.748Z,67.36
2022-10-10T07:52:22.746Z,69.44
2022-10-10T07:53:22.736Z,69.52
2022-10-10T07:54:22.783Z,65.10
2022-10-10T07:55:22.723Z,67.34
2022-10-10T07:56:22.732Z,72.12
2022-10-10T07:57:22.700Z,62.87
2022-10-10T07:58:22.695Z,63.65
2022-10-10T07:59:22.709Z,68.65
2022-10-10T08:00:22.678Z,68.96
2022-10-10T08:01:22.696Z,67.93
2022-10-10T08:02:22.659Z,63.55
2022-10-10T08:03:22.646Z,64.17
2022-10-10T08:04:23.674Z,67.44
2022-10-10T08:05:22.655Z,68.28
2022-10-10T08:06:22.627Z,62.54
2022-10-10T08:07:22.619Z,65.32
2022-10-10T08:08:22.617Z,57.59
2022-10-10T08:09:22.641Z,66.47
2022-10-10T08:10:22.613Z,68.56
2022-10-10T08:11:22.586Z,55.43
2022-10-10T08:12:22.580Z,66.14
2022-10-10T08:13:22.573Z,68.61
2022-10-10T08:14:22.593Z,66.67
2022-10-10T08:15:22.550Z,65.39
2022-10-10T08:16:22.546Z,68.21
2022-10-10T08:17:22.542Z,69.72
2022-10-10T08:18:22.534Z,65.04
2022-10-10T08:19:22.551Z,64.36
2022-10-10T08:20:22.777Z,69.38
2022-10-10T08:21:22.511Z,69.41
2022-10-10T08:22:22.504Z,62.51
2022-10-10T08:23:23.846Z,68.12
2022-10-10T08:24:22.540Z,69.59
2022-10-10T08:25:22.490Z,69.75
2022-10-10T08:26:22.501Z,64.15
2022-10-10T08:27:22.487Z,67.25
2022-10-10T08:28:22.526Z,62.18
2022-10-10T08:29:22.478Z,69.59
2022-10-10T08:30:22.518Z,64.54
2022-10-10T08:31:22.450Z,65.06
2022-10-10T08:32:22.436Z,63.49
2022-10-10T08:33:22.418Z,66.75
2022-10-10T08:34:22.440Z,66.38
2022-10-10T08:35:22.433Z,66.44
2022-10-10T08:36:22.462Z,65.95
2022-10-10T08:37:27.013Z,66.59
2022-10-10T08:38:24.377Z,64.79
2022-10-10T08:39:22.400Z,63.89
2022-10-10T08:40:22.368Z,65.62
2022-10-10T08:41:22.362Z,65.36
2022-10-10T08:42:22.352Z,67.04
2022-10-10T08:43:22.353Z,65.26
2022-10-10T08:44:22.370Z,67.22
2022-10-10T08:45:22.331Z,67.56
2022-10-10T08:46:22.321Z,69.40
2022-10-10T08:47:22.309Z,67.62
2022-10-10T08:48:22.298Z,67.52
2022-10-10T08:49:22.331Z,67.72
2022-10-10T08:50:22.304Z,67.01
2022-10-10T08:51:22.306Z,67.71
2022-10-10T08:52:22.281Z,59.85
2022-10-10T08:53:22.272Z,66.71
2022-10-10T08:54:22.265Z,68.81
2022-10-10T08:55:22.289Z,64.90
2022-10-10T08:56:22.251Z,61.31
2022-10-10T08:57:22.269Z,66.39
2022-10-10T08:58:22.227Z,67.58
2022-10-10T08:59:22.242Z,68.47
2022-10-10T09:00:22.246Z,69.09
2022-10-10T09:01:24.864Z,64.73
2022-10-10T09:02:26.005Z,61.18
2022-10-10T09:03:23.193Z,69.19
2022-10-10T09:04:22.188Z,67.55
2022-10-10T09:05:22.209Z,70.25
2022-10-10T09:06:22.172Z,68.16
2022-10-10T09:07:22.157Z,67.76
2022-10-10T09:08:26.362Z,69.74
2022-10-10T09:09:23.151Z,64.65
2022-10-10T09:10:22.163Z,66.78
2022-10-10T09:11:22.129Z,67.30
2022-10-10T09:12:22.126Z,69.48
2022-10-10T09:13:22.148Z,67.04
2022-10-10T09:14:22.119Z,65.46
2022-10-10T09:15:22.144Z,65.26
2022-10-10T09:16:22.120Z,63.60
2022-10-10T09:17:22.114Z,69.51
2022-10-10T09:18:22.085Z,68.13
2022-10-10T09:19:22.096Z,66.53
2022-10-10T09:20:22.120Z,66.43
2022-10-10T09:21:22.064Z,67.61
2022-10-10T09:22:22.063Z,70.44
2022-10-10T09:23:22.047Z,65.43
2022-10-10T09:24:22.068Z,68.46
2022-10-10T09:25:22.039Z,67.30
2022-10-10T09:26:22.031Z,68.69
2022-10-10T09:27:22.017Z,64.27
2022-10-10T09:28:22.065Z,63.98
2022-10-10T09:29:22.040Z,64.73
2022-10-10T09:30:21.994Z,69.27
2022-10-10T09:31:21.988Z,65.46
2022-10-10T09:32:21.987Z,66.64
2022-10-10T09:33:21.980Z,65.55
2022-10-10T09:34:22.004Z,64.99
2022-10-10T09:35:22.029Z,67.04
2022-10-10T09:36:21.959Z,66.15
2022-10-10T09:37:35.655Z,63.60
2022-10-10T09:38:23.948Z,64.98
2022-10-10T09:39:21.960Z,71.24
2022-10-10T09:40:21.930Z,62.79
2022-10-10T09:41:21.925Z,65.98
2022-10-10T09:42:21.920Z,60.09
2022-10-10T09:43:21.911Z,72.32
2022-10-10T09:44:21.933Z,66.94
2022-10-10T09:45:21.906Z,58.36
2022-10-10T09:46:21.897Z,50.58
2022-10-10T09:47:21.881Z,69.25
2022-10-10T09:48:21.868Z,66.93
2022-10-10T09:49:21.913Z,65.40
2022-10-10T09:50:21.875Z,67.01
2022-10-10T09:51:21.854Z,67.23
2022-10-10T09:52:21.851Z,69.43
2022-10-10T09:53:21.840Z,63.49
2022-10-10T09:54:21.865Z,66.83
2022-10-10T09:55:21.829Z,65.93
2022-10-10T09:56:21.822Z,69.03
2022-10-10T09:57:24.176Z,66.43
2022-10-10T09:58:21.810Z,67.87
2022-10-10T09:59:21.826Z,67.20
2022-10-10T10:00:22.785Z,63.06
2022-10-10T10:01:21.888Z,64.03
2022-10-10T10:02:21.784Z,66.81
2022-10-10T10:03:21.781Z,65.78
2022-10-10T10:04:29.547Z,68.01
2022-10-10T10:05:23.814Z,66.79
2022-10-10T10:06:21.752Z,63.58
2022-10-10T10:07:21.785Z,62.95
2022-10-10T10:08:21.784Z,63.75
2022-10-10T10:09:21.744Z,68.86
2022-10-10T10:10:21.739Z,66.00
2022-10-10T10:11:21.722Z,63.54
2022-10-10T10:12:21.709Z,62.34
2022-10-10T10:13:21.742Z,71.32
2022-10-10T10:14:22.699Z,70.63
2022-10-10T10:15:21.685Z,67.22
2022-10-10T10:16:21.689Z,65.08
2022-10-10T10:17:21.679Z,65.20
2022-10-10T10:18:21.702Z,66.19
2022-10-10T10:19:21.665Z,64.57
2022-10-10T10:20:21.653Z,66.53
2022-10-10T10:21:21.647Z,65.22
2022-10-10T10:22:26.184Z,69.70
2022-10-10T10:23:23.680Z,65.38
2022-10-10T10:24:21.654Z,68.26
2022-10-10T10:25:21.621Z,64.75
2022-10-10T10:26:21.616Z,64.40
2022-10-10T10:27:21.602Z,67.37
2022-10-10T10:28:21.703Z,69.92
2022-10-10T10:29:21.594Z,66.79
2022-10-10T10:30:21.581Z,65.52
2022-10-10T10:31:21.579Z,60.77
2022-10-10T10:32:21.570Z,69.27
2022-10-10T10:33:21.559Z,66.55
2022-10-10T10:34:21.584Z,64.18
2022-10-10T10:35:21.548Z,63.24
2022-10-10T10:36:21.544Z,64.58
2022-10-10T10:37:21.533Z,66.48
2022-10-10T10:38:21.531Z,67.04
2022-10-10T10:39:21.624Z,64.89
2022-10-10T10:40:21.518Z,64.23
2022-10-10T10:41:21.518Z,63.06
2022-10-10T10:42:21.506Z,65.04
2022-10-10T10:43:21.501Z,64.27
2022-10-10T10:44:21.509Z,64.37
2022-10-10T10:45:21.478Z,65.78
2022-10-10T10:46:21.465Z,69.35
2022-10-10T10:47:22.482Z,66.92
2022-10-10T10:48:21.455Z,63.12
2022-10-10T10:49:24.670Z,64.95
2022-10-10T10:50:21.445Z,59.21
2022-10-10T10:51:21.445Z,70.66
2022-10-10T10:52:21.429Z,64.25
2022-10-10T10:53:21.433Z,64.03
2022-10-10T10:54:21.444Z,67.99
2022-10-10T10:55:21.405Z,65.05
2022-10-10T10:56:21.426Z,65.24
2022-10-10T10:57:32.912Z,64.97
2022-10-10T10:59:41.738Z,66.78
2022-10-10T11:01:17.333Z,63.14
2022-10-10T11:01:44.781Z,60.48
2022-10-10T11:02:43.439Z,65.57
2022-10-10T11:05:17.740Z,61.78
2022-10-10T11:05:21.393Z,65.93
2022-10-10T11:05:31.064Z,67.76
2022-10-10T11:06:23.497Z,68.39
2022-10-10T11:07:21.559Z,64.59
2022-10-10T11:08:21.313Z,64.16
2022-10-10T11:09:50.799Z,66.77
2022-10-10T11:10:23.297Z,65.58
2022-10-10T11:11:21.292Z,68.29
2022-10-10T11:12:21.287Z,68.18
2022-10-10T11:13:21.277Z,66.90
2022-10-10T11:14:21.311Z,62.13
2022-10-10T11:15:21.266Z,58.92
2022-10-10T11:16:43.690Z,55.46
2022-10-10T11:17:23.254Z,67.67
2022-10-10T11:18:21.248Z,65.21
2022-10-10T11:19:21.272Z,61.61
2022-10-10T11:20:21.229Z,66.34
2022-10-10T11:21:21.224Z,69.12
2022-10-10T11:22:21.220Z,61.91
2022-10-10T11:23:21.211Z,66.99
2022-10-10T11:24:21.205Z,66.81
2022-10-10T11:25:21.221Z,65.60
2022-10-10T11:26:21.184Z,58.83
2022-10-10T11:27:21.184Z,69.61
2022-10-10T11:28:21.236Z,65.52
2022-10-10T11:29:21.196Z,64.87
2022-10-10T11:30:21.160Z,64.73
2022-10-10T11:31:21.156Z,68.09
2022-10-10T11:32:21.190Z,67.46
2022-10-10T11:33:21.148Z,65.84
2022-10-10T11:34:21.169Z,68.12
2022-10-10T11:35:21.133Z,68.48
2022-10-10T11:36:21.119Z,62.40
2022-10-10T11:37:21.109Z,65.64
2022-10-10T11:38:21.104Z,68.82
2022-10-10T11:39:21.128Z,69.28
2022-10-10T11:40:21.100Z,63.32
2022-10-10T11:41:21.082Z,66.59
2022-10-10T11:42:21.083Z,66.36
2022-10-10T11:43:21.076Z,67.24
2022-10-10T11:44:21.093Z,69.74
2022-10-10T11:45:21.056Z,64.58
2022-10-10T11:46:21.059Z,68.16
2022-10-10T11:47:21.045Z,66.71
2022-10-10T11:48:21.044Z,61.97
2022-10-10T11:49:21.061Z,63.41
2022-10-10T11:50:21.029Z,65.45
2022-10-10T11:51:21.020Z,65.32
2022-10-10T11:52:33.763Z,69.91
2022-10-10T11:53:22.999Z,65.54
2022-10-10T11:54:21.026Z,64.49
2022-10-10T11:55:20.988Z,67.83
2022-10-10T11:56:20.981Z,69.14
2022-10-10T11:57:20.974Z,68.31
2022-10-10T11:58:20.965Z,66.50
2022-10-10T11:59:20.996Z,64.96
2022-10-10T12:00:20.956Z,68.71
2022-10-10T12:01:20.956Z,71.62
2022-10-10T12:02:23.265Z,65.19
2022-10-10T12:03:20.993Z,63.92
2022-10-10T12:04:21.017Z,64.57
2022-10-10T12:05:20.930Z,70.41
2022-10-10T12:06:20.924Z,70.88
2022-10-10T12:07:20.909Z,64.10
2022-10-10T12:08:20.903Z,64.32
2022-10-10T12:09:20.917Z,64.43
2022-10-10T12:10:20.893Z,64.81
2022-10-10T12:11:20.881Z,69.80
2022-10-10T12:12:20.869Z,62.44
2022-10-10T12:13:20.865Z,64.95
2022-10-10T12:14:20.888Z,61.40
2022-10-10T12:15:20.860Z,67.61
2022-10-10T12:16:20.870Z,65.24
2022-10-10T12:17:20.836Z,66.32
2022-10-10T12:18:20.832Z,62.95
2022-10-10T12:19:20.859Z,65.93
2022-10-10T12:20:20.823Z,65.45
2022-10-10T12:21:20.813Z,69.69
2022-10-10T12:22:20.821Z,66.66
2022-10-10T12:23:20.899Z,65.91
2022-10-10T12:24:20.817Z,65.20
2022-10-10T12:25:20.780Z,66.19
2022-10-10T12:26:20.781Z,66.65
2022-10-10T12:27:20.789Z,65.37
2022-10-10T12:28:20.864Z,68.14
2022-10-10T12:29:20.788Z,67.41
2022-10-10T12:30:20.750Z,66.03
2022-10-10T12:31:20.743Z,69.02
2022-10-10T12:32:20.736Z,67.92
2022-10-10T12:33:20.727Z,66.54
2022-10-10T12:34:20.760Z,64.00
2022-10-10T12:35:20.748Z,61.93
2022-10-10T12:36:20.868Z,65.43
2022-10-10T12:37:20.705Z,74.00
2022-10-10T12:38:20.686Z,66.35
2022-10-10T12:39:20.719Z,61.80
2022-10-10T12:40:20.692Z,67.16
2022-10-10T12:41:20.672Z,64.28
2022-10-10T12:42:20.660Z,64.51
2022-10-10T12:43:20.661Z,70.34
2022-10-10T12:44:20.649Z,67.19
2022-10-10T12:45:20.682Z,67.65
2022-10-10T12:46:20.649Z,64.36
2022-10-10T12:47:20.634Z,68.78
2022-10-10T12:48:20.632Z,65.87
2022-10-10T12:49:20.663Z,69.35
2022-10-10T12:50:20.613Z,67.64
2022-10-10T12:51:20.599Z,68.60
2022-10-10T12:52:20.594Z,67.28
2022-10-10T12:53:20.583Z,70.05